createdAt,value
2023-02-14T00:03:54.920Z,7.20
2023-02-14T00:08:57.232Z,5.05
2023-02-14T00:14:18.120Z,6.32
2023-02-14T00:24:26.100Z,6.70
2023-02-14T00:29:30.569Z,6.93
2023-02-14T00:34:33.669Z,6.43
2023-02-14T00:39:35.756Z,6.60
2023-02-14T00:44:38.330Z,7.13
2023-02-14T00:49:40.397Z,7.70
2023-02-14T00:54:42.682Z,7.25
2023-02-14T00:59:44.707Z,6.78
2023-02-14T01:04:46.925Z,7.35
2023-02-14T01:09:49.016Z,6.85
2023-02-14T01:14:51.067Z,6.80
2023-02-14T01:19:53.743Z,6.03
2023-02-14T01:24:55.710Z,7.43
2023-02-14T01:29:57.763Z,7.80
2023-02-14T01:35:00.392Z,7.15
2023-02-14T01:40:03.026Z,5.75
2023-02-14T01:45:07.287Z,7.78
2023-02-14T01:50:14.338Z,7.85
2023-02-14T01:55:22.101Z,7.57
2023-02-14T02:05:46.677Z,8.65
2023-02-14T02:10:48.661Z,8.23
2023-02-14T02:16:03.640Z,7.38
2023-02-14T02:21:24.364Z,6.18
2023-02-14T02:26:59.251Z,7.60
2023-02-14T02:32:22.825Z,7.43
2023-02-14T02:38:00.638Z,7.47
2023-02-14T02:43:14.446Z,5.97
2023-02-14T02:48:23.550Z,6.95
2023-02-14T02:53:43.125Z,6.85
2023-02-14T02:58:53.388Z,7.13
2023-02-14T03:04:19.812Z,8.63
2023-02-14T03:09:24.466Z,9.10
2023-02-14T03:14:32.836Z,7.07
2023-02-14T03:20:06.442Z,9.85
2023-02-14T03:25:40.528Z,7.25
2023-02-14T03:31:07.400Z,8.50
2023-02-14T03:41:22.758Z,7.93
2023-02-14T03:46:47.689Z,10.50
2023-02-14T03:51:53.163Z,9.15
2023-02-14T03:57:17.466Z,10.13
2023-02-14T04:02:27.525Z,10.23
2023-02-14T04:07:29.587Z,9.80
2023-02-14T04:12:37.773Z,8.73
2023-02-14T04:17:59.175Z,11.45
2023-02-14T04:23:03.306Z,11.15
2023-02-14T04:28:05.681Z,9.82
2023-02-14T04:33:08.578Z,9.32
2023-02-14T04:38:10.652Z,8.90
2023-02-14T04:43:12.660Z,10.18
2023-02-14T04:48:14.697Z,10.90
2023-02-14T04:53:19.605Z,10.23
2023-02-14T04:58:21.604Z,8.25
2023-02-14T05:03:23.689Z,10.32
2023-02-14T05:08:25.658Z,9.63
2023-02-14T05:13:28.789Z,11.43
2023-02-14T05:18:30.799Z,10.23
2023-02-14T05:23:32.774Z,10.57
2023-02-14T05:28:34.938Z,9.77
2023-02-14T05:33:37.022Z,9.02
2023-02-14T05:38:39.057Z,10.23
2023-02-14T05:43:41.104Z,10.02
2023-02-14T05:48:43.104Z,8.65
2023-02-14T05:53:45.121Z,8.73
2023-02-14T05:58:47.083Z,10.68
2023-02-14T06:03:49.078Z,11.18
2023-02-14T06:08:51.152Z,10.63
2023-02-14T06:13:53.104Z,10.43
2023-02-14T06:18:55.110Z,8.43
2023-02-14T06:23:57.257Z,7.60
2023-02-14T06:28:59.752Z,9.63
2023-02-14T06:34:01.894Z,8.85
2023-02-14T06:39:04.022Z,9.00
2023-02-14T06:44:06.053Z,8.88
2023-02-14T06:49:08.114Z,10.23
2023-02-14T06:54:10.104Z,10.40
2023-02-14T06:59:12.052Z,9.27
2023-02-14T07:04:14.042Z,10.23
2023-02-14T07:09:18.941Z,9.30
2023-02-14T07:14:20.991Z,10.80
2023-02-14T07:19:22.980Z,11.25
2023-02-14T07:24:25.296Z,10.05
2023-02-14T07:29:27.313Z,10.75
2023-02-14T07:34:29.335Z,10.85
2023-02-14T07:39:31.347Z,11.27
2023-02-14T07:44:33.381Z,10.32
2023-02-14T07:49:35.665Z,9.20
2023-02-14T07:54:39.072Z,12.55
2023-02-14T07:59:41.081Z,9.85
2023-02-14T08:04:43.147Z,8.88
2023-02-14T08:09:47.614Z,18.92
2023-02-14T08:14:49.598Z,11.13
2023-02-14T08:19:52.058Z,12.48
2023-02-14T08:24:54.147Z,11.10
2023-02-14T08:29:56.260Z,11.63
2023-02-14T08:34:58.445Z,14.10
2023-02-14T08:40:00.555Z,12.23
2023-02-14T08:45:02.626Z,12.43
2023-02-14T08:50:07.362Z,15.02
2023-02-14T08:55:10.010Z,9.30
2023-02-14T09:00:12.581Z,11.15
2023-02-14T09:05:14.715Z,11.13
2023-02-14T09:10:18.782Z,14.00
2023-02-14T09:15:20.958Z,13.80
2023-02-14T09:20:23.178Z,15.55
2023-02-14T09:25:25.408Z,14.68
2023-02-14T09:30:27.581Z,10.38
2023-02-14T09:35:29.666Z,11.57
2023-02-14T09:40:33.646Z,11.98
2023-02-14T09:45:36.575Z,12.57
2023-02-14T09:50:45.586Z,11.65
2023-02-14T09:56:02.258Z,12.27
2023-02-14T10:01:23.107Z,18.08
2023-02-14T10:11:41.000Z,12.32
2023-02-14T10:17:08.738Z,8.45
2023-02-14T10:22:17.428Z,16.80
2023-02-14T10:27:36.793Z,12.88
2023-02-14T10:32:59.369Z,12.60
2023-02-14T10:38:17.674Z,11.32
2023-02-14T10:43:29.587Z,14.00
2023-02-14T10:48:58.163Z,6.82
2023-02-14T10:54:23.003Z,14.38
2023-02-14T10:59:32.474Z,11.90
2023-02-14T11:04:35.940Z,10.80
2023-02-14T11:09:38.054Z,11.02
2023-02-14T11:14:41.140Z,11.10
2023-02-14T11:20:03.651Z,12.88
2023-02-14T11:25:18.224Z,13.30
2023-02-14T11:30:41.567Z,12.40
2023-02-14T11:35:51.795Z,10.65
2023-02-14T11:40:57.292Z,10.95
2023-02-14T11:46:17.417Z,11.90
2023-02-14T11:51:24.395Z,13.75
2023-02-14T11:56:48.802Z,11.35
2023-02-14T12:01:52.828Z,10.02
2023-02-14T12:06:55.300Z,11.00
2023-02-14T12:12:01.349Z,11.68
2023-02-14T12:17:12.231Z,9.85
2023-02-14T12:22:21.103Z,10.57
2023-02-14T12:27:35.633Z,10.30
2023-02-14T12:38:04.306Z,9.70
2023-02-14T12:43:25.643Z,7.10
2023-02-14T12:48:58.477Z,9.57
2023-02-14T12:54:18.874Z,9.15
2023-02-14T12:59:23.944Z,10.00
2023-02-14T13:05:02.034Z,10.70
2023-02-14T13:10:27.612Z,13.48
2023-02-14T13:15:52.923Z,12.05
2023-02-14T13:20:59.166Z,10.82
2023-02-14T13:26:07.989Z,16.50
2023-02-14T13:36:14.334Z,9.23
2023-02-14T13:41:19.764Z,16.33
2023-02-14T13:46:34.885Z,11.57
2023-02-14T13:51:52.065Z,14.55
2023-02-14T13:56:54.270Z,10.75
2023-02-14T14:02:16.727Z,20.00
2023-02-14T14:07:27.289Z,10.25
2023-02-14T14:12:29.324Z,9.45
2023-02-14T14:17:34.054Z,12.48
2023-02-14T14:22:48.120Z,11.32
2023-02-14T14:27:51.192Z,9.05
2023-02-14T14:32:53.622Z,35.90
2023-02-14T14:37:58.027Z,10.52
2023-02-14T14:43:18.354Z,9.27
2023-02-14T14:48:41.510Z,23.75
2023-02-14T14:54:01.938Z,30.38
2023-02-14T14:59:28.193Z,24.92
2023-02-14T15:04:35.708Z,64.05
2023-02-14T15:09:37.824Z,21.92
2023-02-14T15:14:43.402Z,27.00
2023-02-14T15:19:51.251Z,15.25
2023-02-14T15:24:54.013Z,12.95
2023-02-14T15:29:59.906Z,29.92
2023-02-14T15:35:05.865Z,15.57
2023-02-14T15:40:09.303Z,18.60
2023-02-14T15:45:46.186Z,29.20
2023-02-14T15:50:55.302Z,42.00
2023-02-14T15:56:08.283Z,20.15
2023-02-14T16:01:10.829Z,29.98
2023-02-14T16:06:40.107Z,26.17
2023-02-14T16:11:42.530Z,13.25
2023-02-14T16:16:59.897Z,13.10
2023-02-14T16:22:02.813Z,22.73
2023-02-14T16:27:09.333Z,16.83
2023-02-14T16:32:21.973Z,18.65
2023-02-14T16:37:35.536Z,16.20
2023-02-14T16:42:41.643Z,16.30
2023-02-14T16:47:46.653Z,16.63
2023-02-14T16:52:53.080Z,24.67
2023-02-14T16:57:55.743Z,18.88
2023-02-14T17:03:11.168Z,15.77
2023-02-14T17:08:16.732Z,13.18
2023-02-14T17:13:24.988Z,17.92
2023-02-14T17:18:28.967Z,18.92
2023-02-14T17:23:32.314Z,22.38
2023-02-14T17:28:34.683Z,30.42
2023-02-14T17:33:37.648Z,32.25
2023-02-14T17:38:43.762Z,34.30
2023-02-14T17:43:48.224Z,30.60
2023-02-14T17:48:51.002Z,21.00
2023-02-14T17:58:56.539Z,20.42
2023-02-14T18:03:59.677Z,19.27
2023-02-14T18:09:06.547Z,24.70
2023-02-14T18:14:11.122Z,25.13
2023-02-14T18:19:20.356Z,21.98
2023-02-14T18:24:23.675Z,19.58
2023-02-14T18:29:26.753Z,20.30
2023-02-14T18:34:31.187Z,20.95
2023-02-14T18:39:35.181Z,22.35
2023-02-14T18:44:37.723Z,23.65
2023-02-14T18:49:46.750Z,18.88
2023-02-14T18:54:49.876Z,20.02
2023-02-14T18:59:52.937Z,19.73
2023-02-14T19:05:00.354Z,22.58
2023-02-14T19:10:08.080Z,24.23
2023-02-14T19:15:13.121Z,20.23
2023-02-14T19:20:19.923Z,19.92
2023-02-14T19:25:23.583Z,20.50
2023-02-14T19:30:26.875Z,17.67
2023-02-14T19:35:30.968Z,17.38
2023-02-14T19:40:36.104Z,15.18
2023-02-14T19:45:40.307Z,20.48
2023-02-14T19:50:46.436Z,20.00
2023-02-14T19:55:50.144Z,20.00
2023-02-14T20:01:01.569Z,19.27
2023-02-14T20:06:05.337Z,18.83
2023-02-14T20:11:31.042Z,18.02
2023-02-14T20:16:37.591Z,18.92
2023-02-14T20:21:43.305Z,22.08
2023-02-14T20:26:48.655Z,24.55
2023-02-14T20:31:55.929Z,20.13
2023-02-14T20:37:00.314Z,19.02
2023-02-14T20:42:04.447Z,17.27
2023-02-14T20:47:09.848Z,15.63
2023-02-14T20:52:14.379Z,15.98
2023-02-14T20:57:19.659Z,15.23
2023-02-14T21:02:23.282Z,16.70
2023-02-14T21:07:31.141Z,17.27
2023-02-14T21:12:35.760Z,13.68
2023-02-14T21:17:39.133Z,18.38
2023-02-14T21:22:42.219Z,27.90
2023-02-14T21:32:48.432Z,24.02
2023-02-14T21:37:52.464Z,23.83
2023-02-14T21:42:55.688Z,23.05
2023-02-14T21:48:17.106Z,25.42
2023-02-14T21:53:20.895Z,29.08
2023-02-14T21:58:23.567Z,33.38
2023-02-14T22:03:26.251Z,25.00
2023-02-14T22:08:28.944Z,22.70
2023-02-14T22:13:31.223Z,27.52
2023-02-14T22:18:33.767Z,24.55
2023-02-14T22:23:37.473Z,23.63
2023-02-14T22:28:41.449Z,23.52
2023-02-14T22:33:44.188Z,24.48
2023-02-14T22:38:46.495Z,20.02
2023-02-14T22:43:48.632Z,21.30
2023-02-14T22:48:51.819Z,19.75
2023-02-14T22:53:56.772Z,21.17
2023-02-14T22:59:02.254Z,22.17
2023-02-14T23:04:05.043Z,21.40
2023-02-14T23:09:10.057Z,17.10
2023-02-14T23:14:32.596Z,17.52
2023-02-14T23:19:54.565Z,13.48
2023-02-14T23:24:59.361Z,12.50
2023-02-14T23:30:01.708Z,15.68
2023-02-14T23:35:04.440Z,18.52
2023-02-14T23:40:07.397Z,19.48
2023-02-14T23:50:50.170Z,19.27
2023-02-14T23:55:52.130Z,19.20
